Balikesir, Turkey
Current Conditions -  °F | °C
As of 1:50 AM on Tuesday 21 Oct 2014 (Local Time) from LTBF Reporting Station
Clear Clear  
Wind Chill:   Ceiling: Unl
Heat Index:   Visibility: 6mi
Dew Point:   Wind: 2mph
Humidity: 81%   Direction: 260°W
Pressure: 30.09"   Gusts: NA
Location:  39.65°N, 27.88°E
Report Text: LTBF 202250Z 26002KT CAVOK 05/02 Q1019 NOSIG
Loading
Personal Weather Stations






























Interactive Weather Map
Tropical Storm Tracking
New forecast layout! Learn more

10-Day Weather Forecast

Advertisements
Track Severe Weather on mobile